sensor_id;sensor_type;location;lat;lon;timestamp;temperature;humidity
59075;DHT22;44860;53.020;6.738;2023-08-30T00:01:55;13.70;99.90
59075;DHT22;44860;53.020;6.738;2023-08-30T00:04:22;13.70;99.90
59075;DHT22;44860;53.020;6.738;2023-08-30T00:06:48;13.60;99.90
59075;DHT22;44860;53.020;6.738;2023-08-30T00:09:13;13.60;99.90
59075;DHT22;44860;53.020;6.738;2023-08-30T00:11:39;13.50;99.90
59075;DHT22;44860;53.020;6.738;2023-08-30T00:14:06;13.50;99.90
59075;DHT22;44860;53.020;6.738;2023-08-30T00:16:33;13.50;99.90
59075;DHT22;44860;53.020;6.738;2023-08-30T00:18:59;13.40;99.90
59075;DHT22;44860;53.020;6.738;2023-08-30T00:21:25;13.40;99.90
59075;DHT22;44860;53.020;6.738;2023-08-30T00:23:52;13.40;99.90
59075;DHT22;44860;53.020;6.738;2023-08-30T00:26:18;13.40;99.90
59075;DHT22;44860;53.020;6.738;2023-08-30T00:28:44;13.30;99.90
59075;DHT22;44860;53.020;6.738;2023-08-30T00:31:09;13.30;99.90
59075;DHT22;44860;53.020;6.738;2023-08-30T00:33:35;13.20;99.90
59075;DHT22;44860;53.020;6.738;2023-08-30T00:36:01;13.20;99.90
59075;DHT22;44860;53.020;6.738;2023-08-30T00:38:27;13.10;99.90
59075;DHT22;44860;53.020;6.738;2023-08-30T00:40:53;13.10;99.90
59075;DHT22;44860;53.020;6.738;2023-08-30T00:43:20;13.10;99.90
59075;DHT22;44860;53.020;6.738;2023-08-30T00:45:47;13.00;99.90
59075;DHT22;44860;53.020;6.738;2023-08-30T00:48:14;13.00;99.90
59075;DHT22;44860;53.020;6.738;2023-08-30T00:50:41;13.00;99.90
59075;DHT22;44860;53.020;6.738;2023-08-30T00:53:07;13.00;99.90
59075;DHT22;44860;53.020;6.738;2023-08-30T00:55:35;13.00;99.90
59075;DHT22;44860;53.020;6.738;2023-08-30T00:58:01;12.90;99.90
59075;DHT22;44860;53.020;6.738;2023-08-30T01:00:31;12.90;99.90
59075;DHT22;44860;53.020;6.738;2023-08-30T01:02:57;12.90;99.90
59075;DHT22;44860;53.020;6.738;2023-08-30T01:05:23;12.90;99.90
59075;DHT22;44860;53.020;6.738;2023-08-30T01:07:50;13.00;99.90
59075;DHT22;44860;53.020;6.738;2023-08-30T01:10:17;12.90;99.90
59075;DHT22;44860;53.020;6.738;2023-08-30T01:12:49;12.90;99.90
59075;DHT22;44860;53.020;6.738;2023-08-30T01:15:21;12.90;99.90
59075;DHT22;44860;53.020;6.738;2023-08-30T01:17:49;12.90;99.90
59075;DHT22;44860;53.020;6.738;2023-08-30T01:20:17;12.90;99.90
59075;DHT22;44860;53.020;6.738;2023-08-30T01:28:16;12.90;99.90
59075;DHT22;44860;53.020;6.738;2023-08-30T01:30:42;12.90;99.90
59075;DHT22;44860;53.020;6.738;2023-08-30T01:33:10;12.90;99.90
59075;DHT22;44860;53.020;6.738;2023-08-30T01:35:36;12.90;99.90
59075;DHT22;44860;53.020;6.738;2023-08-30T01:38:03;12.90;99.90
59075;DHT22;44860;53.020;6.738;2023-08-30T01:40:35;12.90;99.90
59075;DHT22;44860;53.020;6.738;2023-08-30T01:43:02;12.90;99.90
59075;DHT22;44860;53.020;6.738;2023-08-30T01:45:30;13.00;99.90
59075;DHT22;44860;53.020;6.738;2023-08-30T01:47:57;13.00;99.90
59075;DHT22;44860;53.020;6.738;2023-08-30T01:50:23;13.00;99.90
59075;DHT22;44860;53.020;6.738;2023-08-30T01:52:50;13.10;99.90
59075;DHT22;44860;53.020;6.738;2023-08-30T01:55:18;13.10;99.90
59075;DHT22;44860;53.020;6.738;2023-08-30T01:57:45;13.10;99.90
59075;DHT22;44860;53.020;6.738;2023-08-30T02:00:12;13.10;99.90
59075;DHT22;44860;53.020;6.738;2023-08-30T02:02:38;13.20;99.90
59075;DHT22;44860;53.020;6.738;2023-08-30T02:05:04;13.20;99.90
59075;DHT22;44860;53.020;6.738;2023-08-30T02:07:37;13.20;99.90
59075;DHT22;44860;53.020;6.738;2023-08-30T02:10:10;13.20;99.90
59075;DHT22;44860;53.020;6.738;2023-08-30T02:12:48;13.30;99.90
59075;DHT22;44860;53.020;6.738;2023-08-30T02:15:14;13.30;99.90
59075;DHT22;44860;53.020;6.738;2023-08-30T02:17:41;13.30;99.90
59075;DHT22;44860;53.020;6.738;2023-08-30T02:20:07;13.30;99.90
59075;DHT22;44860;53.020;6.738;2023-08-30T02:22:33;13.30;99.90
59075;DHT22;44860;53.020;6.738;2023-08-30T02:24:59;13.30;99.90
59075;DHT22;44860;53.020;6.738;2023-08-30T02:27:28;13.30;99.90
59075;DHT22;44860;53.020;6.738;2023-08-30T02:29:55;13.20;99.90
59075;DHT22;44860;53.020;6.738;2023-08-30T02:32:21;13.20;99.90
59075;DHT22;44860;53.020;6.738;2023-08-30T02:34:50;13.20;99.90
59075;DHT22;44860;53.020;6.738;2023-08-30T02:37:16;13.20;99.90
59075;DHT22;44860;53.020;6.738;2023-08-30T02:39:42;13.20;99.90
59075;DHT22;44860;53.020;6.738;2023-08-30T02:42:07;13.20;99.90
59075;DHT22;44860;53.020;6.738;2023-08-30T02:44:33;13.20;99.90
59075;DHT22;44860;53.020;6.738;2023-08-30T02:46:59;13.20;99.90
59075;DHT22;44860;53.020;6.738;2023-08-30T02:49:24;13.10;99.90
59075;DHT22;44860;53.020;6.738;2023-08-30T02:51:50;13.10;99.90
59075;DHT22;44860;53.020;6.738;2023-08-30T02:54:16;13.10;99.90
59075;DHT22;44860;53.020;6.738;2023-08-30T02:56:42;13.10;99.90
59075;DHT22;44860;53.020;6.738;2023-08-30T02:59:09;13.00;99.90
59075;DHT22;44860;53.020;6.738;2023-08-30T03:01:35;13.00;99.90
59075;DHT22;44860;53.020;6.738;2023-08-30T03:04:01;13.00;99.90
59075;DHT22;44860;53.020;6.738;2023-08-30T03:06:26;12.90;99.90
59075;DHT22;44860;53.020;6.738;2023-08-30T03:08:53;12.90;99.90
59075;DHT22;44860;53.020;6.738;2023-08-30T03:11:19;12.90;99.90
59075;DHT22;44860;53.020;6.738;2023-08-30T03:13:45;12.90;99.90
59075;DHT22;44860;53.020;6.738;2023-08-30T03:16:15;12.90;99.90
59075;DHT22;44860;53.020;6.738;2023-08-30T03:18:42;12.80;99.90
59075;DHT22;44860;53.020;6.738;2023-08-30T03:21:08;12.80;99.90
59075;DHT22;44860;53.020;6.738;2023-08-30T03:23:35;12.70;99.90
59075;DHT22;44860;53.020;6.738;2023-08-30T03:26:08;12.70;99.90
59075;DHT22;44860;53.020;6.738;2023-08-30T03:28:34;12.80;99.90
59075;DHT22;44860;53.020;6.738;2023-08-30T03:31:00;12.70;99.90
59075;DHT22;44860;53.020;6.738;2023-08-30T03:33:26;12.70;99.90
59075;DHT22;44860;53.020;6.738;2023-08-30T03:35:51;12.70;99.90
59075;DHT22;44860;53.020;6.738;2023-08-30T03:38:17;12.70;99.90
59075;DHT22;44860;53.020;6.738;2023-08-30T03:40:43;12.70;99.90
59075;DHT22;44860;53.020;6.738;2023-08-30T03:43:08;12.70;99.90
59075;DHT22;44860;53.020;6.738;2023-08-30T03:45:36;12.60;99.90
59075;DHT22;44860;53.020;6.738;2023-08-30T03:48:03;12.60;99.90
59075;DHT22;44860;53.020;6.738;2023-08-30T03:50:29;12.60;99.90
59075;DHT22;44860;53.020;6.738;2023-08-30T03:52:54;12.60;99.90
59075;DHT22;44860;53.020;6.738;2023-08-30T03:55:20;12.60;99.90
59075;DHT22;44860;53.020;6.738;2023-08-30T03:57:48;12.60;99.90
59075;DHT22;44860;53.020;6.738;2023-08-30T04:00:14;12.60;99.90
59075;DHT22;44860;53.020;6.738;2023-08-30T04:02:40;12.60;99.90
59075;DHT22;44860;53.020;6.738;2023-08-30T04:05:05;12.60;99.90
59075;DHT22;44860;53.020;6.738;2023-08-30T04:07:37;12.50;99.90
59075;DHT22;44860;53.020;6.738;2023-08-30T04:10:03;12.50;99.90
59075;DHT22;44860;53.020;6.738;2023-08-30T04:12:33;12.50;99.90
59075;DHT22;44860;53.020;6.738;2023-08-30T04:14:59;12.50;99.90
59075;DHT22;44860;53.020;6.738;2023-08-30T04:17:24;12.50;99.90
59075;DHT22;44860;53.020;6.738;2023-08-30T04:19:53;12.40;99.90
59075;DHT22;44860;53.020;6.738;2023-08-30T04:22:19;12.40;99.90
59075;DHT22;44860;53.020;6.738;2023-08-30T04:24:46;12.40;99.90
59075;DHT22;44860;53.020;6.738;2023-08-30T04:27:12;12.40;99.90
59075;DHT22;44860;53.020;6.738;2023-08-30T04:29:38;12.30;99.90
59075;DHT22;44860;53.020;6.738;2023-08-30T04:32:04;12.30;99.90
59075;DHT22;44860;53.020;6.738;2023-08-30T04:34:30;12.30;99.90
59075;DHT22;44860;53.020;6.738;2023-08-30T04:36:56;12.30;99.90
59075;DHT22;44860;53.020;6.738;2023-08-30T04:39:22;12.30;99.90
59075;DHT22;44860;53.020;6.738;2023-08-30T04:41:48;12.30;99.90
59075;DHT22;44860;53.020;6.738;2023-08-30T04:44:13;12.30;99.90
59075;DHT22;44860;53.020;6.738;2023-08-30T04:46:39;12.30;99.90
59075;DHT22;44860;53.020;6.738;2023-08-30T04:49:05;12.30;99.90
59075;DHT22;44860;53.020;6.738;2023-08-30T04:51:30;12.30;99.90
59075;DHT22;44860;53.020;6.738;2023-08-30T04:53:56;12.30;99.90
59075;DHT22;44860;53.020;6.738;2023-08-30T04:56:23;12.30;99.90
59075;DHT22;44860;53.020;6.738;2023-08-30T04:58:49;12.30;99.90
59075;DHT22;44860;53.020;6.738;2023-08-30T05:01:15;12.40;99.90
59075;DHT22;44860;53.020;6.738;2023-08-30T05:03:41;12.40;99.90
59075;DHT22;44860;53.020;6.738;2023-08-30T05:06:07;12.40;99.90
59075;DHT22;44860;53.020;6.738;2023-08-30T05:08:33;12.40;99.90
59075;DHT22;44860;53.020;6.738;2023-08-30T05:10:58;12.40;99.90
59075;DHT22;44860;53.020;6.738;2023-08-30T05:13:24;12.40;99.90
59075;DHT22;44860;53.020;6.738;2023-08-30T05:15:50;12.50;99.90
59075;DHT22;44860;53.020;6.738;2023-08-30T05:18:15;12.50;99.90
59075;DHT22;44860;53.020;6.738;2023-08-30T05:20:41;12.50;99.90
59075;DHT22;44860;53.020;6.738;2023-08-30T05:23:07;12.50;99.90
59075;DHT22;44860;53.020;6.738;2023-08-30T05:25:33;12.50;99.90
59075;DHT22;44860;53.020;6.738;2023-08-30T05:27:58;12.60;99.90
59075;DHT22;44860;53.020;6.738;2023-08-30T05:30:24;12.60;99.90
59075;DHT22;44860;53.020;6.738;2023-08-30T05:32:49;12.60;99.90
59075;DHT22;44860;53.020;6.738;2023-08-30T05:35:15;12.60;99.90
59075;DHT22;44860;53.020;6.738;2023-08-30T05:37:41;12.60;99.90
59075;DHT22;44860;53.020;6.738;2023-08-30T05:40:07;12.60;99.90
59075;DHT22;44860;53.020;6.738;2023-08-30T05:42:33;12.60;99.90
59075;DHT22;44860;53.020;6.738;2023-08-30T05:44:59;12.60;99.90
59075;DHT22;44860;53.020;6.738;2023-08-30T05:47:24;12.70;99.90
59075;DHT22;44860;53.020;6.738;2023-08-30T05:49:50;12.70;99.90
59075;DHT22;44860;53.020;6.738;2023-08-30T05:52:16;12.70;99.90
59075;DHT22;44860;53.020;6.738;2023-08-30T05:54:42;12.80;99.90
59075;DHT22;44860;53.020;6.738;2023-08-30T05:57:08;12.80;99.90
59075;DHT22;44860;53.020;6.738;2023-08-30T05:59:34;12.80;99.90
59075;DHT22;44860;53.020;6.738;2023-08-30T06:02:01;12.80;99.90
59075;DHT22;44860;53.020;6.738;2023-08-30T06:04:26;12.90;99.90
59075;DHT22;44860;53.020;6.738;2023-08-30T06:06:52;12.90;99.90
59075;DHT22;44860;53.020;6.738;2023-08-30T06:09:18;13.00;99.90
59075;DHT22;44860;53.020;6.738;2023-08-30T06:11:43;13.00;99.90
59075;DHT22;44860;53.020;6.738;2023-08-30T06:14:09;13.00;99.90
59075;DHT22;44860;53.020;6.738;2023-08-30T06:16:35;13.10;99.90
59075;DHT22;44860;53.020;6.738;2023-08-30T06:19:01;13.10;99.90
59075;DHT22;44860;53.020;6.738;2023-08-30T06:21:27;13.10;99.90
59075;DHT22;44860;53.020;6.738;2023-08-30T06:23:52;13.10;99.90
59075;DHT22;44860;53.020;6.738;2023-08-30T06:26:18;13.20;99.90
59075;DHT22;44860;53.020;6.738;2023-08-30T06:28:44;13.20;99.90
59075;DHT22;44860;53.020;6.738;2023-08-30T06:31:10;13.20;99.90
59075;DHT22;44860;53.020;6.738;2023-08-30T06:33:36;13.30;99.90
59075;DHT22;44860;53.020;6.738;2023-08-30T06:36:02;13.30;99.90
59075;DHT22;44860;53.020;6.738;2023-08-30T06:38:28;13.40;99.90
59075;DHT22;44860;53.020;6.738;2023-08-30T06:40:54;13.40;99.90
59075;DHT22;44860;53.020;6.738;2023-08-30T06:43:22;13.50;99.90
59075;DHT22;44860;53.020;6.738;2023-08-30T06:45:48;13.50;99.90
59075;DHT22;44860;53.020;6.738;2023-08-30T06:48:14;13.60;99.90
59075;DHT22;44860;53.020;6.738;2023-08-30T06:50:39;13.60;99.90
59075;DHT22;44860;53.020;6.738;2023-08-30T06:53:05;13.60;99.90
59075;DHT22;44860;53.020;6.738;2023-08-30T06:55:31;13.70;99.90
59075;DHT22;44860;53.020;6.738;2023-08-30T06:57:59;13.80;99.90
59075;DHT22;44860;53.020;6.738;2023-08-30T07:00:24;13.80;99.90
59075;DHT22;44860;53.020;6.738;2023-08-30T07:02:50;13.90;99.90
59075;DHT22;44860;53.020;6.738;2023-08-30T07:05:16;13.90;99.90
59075;DHT22;44860;53.020;6.738;2023-08-30T07:07:42;14.00;99.90
59075;DHT22;44860;53.020;6.738;2023-08-30T07:10:07;14.00;99.90
59075;DHT22;44860;53.020;6.738;2023-08-30T07:12:33;14.00;99.90
59075;DHT22;44860;53.020;6.738;2023-08-30T07:14:59;14.10;99.90
59075;DHT22;44860;53.020;6.738;2023-08-30T07:17:25;14.10;99.90
59075;DHT22;44860;53.020;6.738;2023-08-30T07:19:50;14.10;99.90
59075;DHT22;44860;53.020;6.738;2023-08-30T07:22:16;14.20;99.90
59075;DHT22;44860;53.020;6.738;2023-08-30T07:24:45;14.20;99.90
59075;DHT22;44860;53.020;6.738;2023-08-30T07:27:11;14.20;99.90
59075;DHT22;44860;53.020;6.738;2023-08-30T07:29:39;14.30;99.90
59075;DHT22;44860;53.020;6.738;2023-08-30T07:32:06;14.30;99.90
59075;DHT22;44860;53.020;6.738;2023-08-30T07:34:32;14.30;99.90
59075;DHT22;44860;53.020;6.738;2023-08-30T07:36:58;14.30;99.90
59075;DHT22;44860;53.020;6.738;2023-08-30T07:39:24;14.30;99.90
59075;DHT22;44860;53.020;6.738;2023-08-30T07:41:50;14.30;99.90
59075;DHT22;44860;53.020;6.738;2023-08-30T07:44:15;14.40;99.90
59075;DHT22;44860;53.020;6.738;2023-08-30T07:46:41;14.40;99.90
59075;DHT22;44860;53.020;6.738;2023-08-30T07:49:07;14.40;99.90
59075;DHT22;44860;53.020;6.738;2023-08-30T07:51:33;14.50;99.90
59075;DHT22;44860;53.020;6.738;2023-08-30T07:53:59;14.50;99.90
59075;DHT22;44860;53.020;6.738;2023-08-30T07:56:24;14.50;99.90
59075;DHT22;44860;53.020;6.738;2023-08-30T07:58:51;14.60;99.90
59075;DHT22;44860;53.020;6.738;2023-08-30T08:01:17;14.60;99.90
59075;DHT22;44860;53.020;6.738;2023-08-30T08:03:42;14.70;99.90
59075;DHT22;44860;53.020;6.738;2023-08-30T08:06:08;14.80;99.90
59075;DHT22;44860;53.020;6.738;2023-08-30T08:08:34;14.80;99.90
59075;DHT22;44860;53.020;6.738;2023-08-30T08:11:00;14.90;99.90
59075;DHT22;44860;53.020;6.738;2023-08-30T08:13:25;15.00;99.90
59075;DHT22;44860;53.020;6.738;2023-08-30T08:15:51;15.10;99.90
59075;DHT22;44860;53.020;6.738;2023-08-30T08:18:17;15.20;99.90
59075;DHT22;44860;53.020;6.738;2023-08-30T08:20:42;15.30;99.90
59075;DHT22;44860;53.020;6.738;2023-08-30T08:23:08;15.40;99.90
59075;DHT22;44860;53.020;6.738;2023-08-30T08:25:34;15.40;99.90
59075;DHT22;44860;53.020;6.738;2023-08-30T08:28:00;15.50;99.90
59075;DHT22;44860;53.020;6.738;2023-08-30T08:30:26;15.60;99.90
59075;DHT22;44860;53.020;6.738;2023-08-30T08:32:51;15.70;99.90
59075;DHT22;44860;53.020;6.738;2023-08-30T08:35:17;15.70;99.90
59075;DHT22;44860;53.020;6.738;2023-08-30T08:37:43;15.70;99.90
59075;DHT22;44860;53.020;6.738;2023-08-30T08:40:09;15.80;99.90
59075;DHT22;44860;53.020;6.738;2023-08-30T08:42:35;15.80;99.90
59075;DHT22;44860;53.020;6.738;2023-08-30T08:45:04;15.80;99.90
59075;DHT22;44860;53.020;6.738;2023-08-30T08:47:31;15.90;99.90
59075;DHT22;44860;53.020;6.738;2023-08-30T08:49:57;15.90;99.90
59075;DHT22;44860;53.020;6.738;2023-08-30T08:52:24;16.00;99.90
59075;DHT22;44860;53.020;6.738;2023-08-30T08:54:50;16.00;99.90
59075;DHT22;44860;53.020;6.738;2023-08-30T08:57:17;16.00;99.90
59075;DHT22;44860;53.020;6.738;2023-08-30T08:59:43;16.10;99.90
59075;DHT22;44860;53.020;6.738;2023-08-30T09:02:12;16.10;99.90
59075;DHT22;44860;53.020;6.738;2023-08-30T09:04:39;16.20;99.90
59075;DHT22;44860;53.020;6.738;2023-08-30T09:07:05;16.20;99.90
59075;DHT22;44860;53.020;6.738;2023-08-30T09:09:31;16.20;99.90
59075;DHT22;44860;53.020;6.738;2023-08-30T09:11:57;16.30;99.90
59075;DHT22;44860;53.020;6.738;2023-08-30T09:14:22;16.30;99.90
59075;DHT22;44860;53.020;6.738;2023-08-30T09:16:55;16.30;99.90
59075;DHT22;44860;53.020;6.738;2023-08-30T09:19:21;16.40;99.90
59075;DHT22;44860;53.020;6.738;2023-08-30T09:21:57;16.40;99.90
59075;DHT22;44860;53.020;6.738;2023-08-30T09:24:24;16.40;99.90
59075;DHT22;44860;53.020;6.738;2023-08-30T09:26:54;16.40;99.90
59075;DHT22;44860;53.020;6.738;2023-08-30T09:29:21;16.30;99.90
59075;DHT22;44860;53.020;6.738;2023-08-30T09:31:51;16.30;99.90
59075;DHT22;44860;53.020;6.738;2023-08-30T09:34:22;16.30;99.90
59075;DHT22;44860;53.020;6.738;2023-08-30T09:36:49;16.30;99.90
59075;DHT22;44860;53.020;6.738;2023-08-30T09:39:15;16.30;99.90
59075;DHT22;44860;53.020;6.738;2023-08-30T09:41:50;16.30;99.90
59075;DHT22;44860;53.020;6.738;2023-08-30T09:44:20;16.30;99.90
59075;DHT22;44860;53.020;6.738;2023-08-30T09:49:13;16.20;99.90
59075;DHT22;44860;53.020;6.738;2023-08-30T09:51:40;16.20;99.90
59075;DHT22;44860;53.020;6.738;2023-08-30T09:54:14;16.20;99.90
59075;DHT22;44860;53.020;6.738;2023-08-30T09:56:42;16.10;99.90
59075;DHT22;44860;53.020;6.738;2023-08-30T09:59:10;16.10;99.90
59075;DHT22;44860;53.020;6.738;2023-08-30T10:01:37;16.10;99.90
59075;DHT22;44860;53.020;6.738;2023-08-30T10:04:04;16.10;99.90
59075;DHT22;44860;53.020;6.738;2023-08-30T10:06:32;16.00;99.90
59075;DHT22;44860;53.020;6.738;2023-08-30T10:08:59;16.00;99.90
59075;DHT22;44860;53.020;6.738;2023-08-30T10:11:27;16.00;99.90
59075;DHT22;44860;53.020;6.738;2023-08-30T10:13:55;15.90;99.90
59075;DHT22;44860;53.020;6.738;2023-08-30T10:16:24;15.90;99.90
59075;DHT22;44860;53.020;6.738;2023-08-30T10:19:01;16.00;99.90
59075;DHT22;44860;53.020;6.738;2023-08-30T10:21:29;15.90;99.90
59075;DHT22;44860;53.020;6.738;2023-08-30T10:23:56;15.90;99.90
59075;DHT22;44860;53.020;6.738;2023-08-30T10:26:25;15.90;99.90
59075;DHT22;44860;53.020;6.738;2023-08-30T10:28:55;15.90;99.90
59075;DHT22;44860;53.020;6.738;2023-08-30T10:31:22;16.00;99.90
59075;DHT22;44860;53.020;6.738;2023-08-30T10:33:53;15.90;99.90
59075;DHT22;44860;53.020;6.738;2023-08-30T10:36:26;16.00;99.90
59075;DHT22;44860;53.020;6.738;2023-08-30T10:38:53;16.00;99.90
59075;DHT22;44860;53.020;6.738;2023-08-30T10:41:25;16.10;99.90
59075;DHT22;44860;53.020;6.738;2023-08-30T10:43:57;16.10;99.90
59075;DHT22;44860;53.020;6.738;2023-08-30T10:46:33;16.10;99.90
59075;DHT22;44860;53.020;6.738;2023-08-30T10:49:12;16.10;99.90
59075;DHT22;44860;53.020;6.738;2023-08-30T10:51:41;16.10;99.90
59075;DHT22;44860;53.020;6.738;2023-08-30T10:54:14;16.20;99.90
59075;DHT22;44860;53.020;6.738;2023-08-30T10:57:15;16.20;99.90
59075;DHT22;44860;53.020;6.738;2023-08-30T11:00:08;16.20;99.90
59075;DHT22;44860;53.020;6.738;2023-08-30T11:02:36;16.30;99.90
59075;DHT22;44860;53.020;6.738;2023-08-30T11:05:02;16.30;99.90
59075;DHT22;44860;53.020;6.738;2023-08-30T11:07:28;16.40;99.90
59075;DHT22;44860;53.020;6.738;2023-08-30T11:09:55;16.40;99.90
59075;DHT22;44860;53.020;6.738;2023-08-30T11:12:21;16.40;99.90
59075;DHT22;44860;53.020;6.738;2023-08-30T11:14:52;16.50;99.90
59075;DHT22;44860;53.020;6.738;2023-08-30T11:17:21;16.50;99.90
59075;DHT22;44860;53.020;6.738;2023-08-30T11:19:50;16.40;99.90
59075;DHT22;44860;53.020;6.738;2023-08-30T11:22:16;16.40;99.90
59075;DHT22;44860;53.020;6.738;2023-08-30T11:24:43;16.40;99.90
59075;DHT22;44860;53.020;6.738;2023-08-30T11:27:11;16.40;99.90
59075;DHT22;44860;53.020;6.738;2023-08-30T11:29:39;16.40;99.90
59075;DHT22;44860;53.020;6.738;2023-08-30T11:32:07;16.30;99.90
59075;DHT22;44860;53.020;6.738;2023-08-30T11:34:33;16.30;99.90
59075;DHT22;44860;53.020;6.738;2023-08-30T11:36:59;16.30;99.90
59075;DHT22;44860;53.020;6.738;2023-08-30T11:39:28;16.30;99.90
59075;DHT22;44860;53.020;6.738;2023-08-30T11:41:54;16.20;99.90
59075;DHT22;44860;53.020;6.738;2023-08-30T11:44:23;16.10;99.90
59075;DHT22;44860;53.020;6.738;2023-08-30T11:46:48;16.10;99.90
59075;DHT22;44860;53.020;6.738;2023-08-30T11:49:16;16.20;99.90
59075;DHT22;44860;53.020;6.738;2023-08-30T11:51:42;16.20;99.90
59075;DHT22;44860;53.020;6.738;2023-08-30T11:54:08;16.10;99.90
59075;DHT22;44860;53.020;6.738;2023-08-30T11:56:35;16.20;99.90
59075;DHT22;44860;53.020;6.738;2023-08-30T11:59:01;16.10;99.90
59075;DHT22;44860;53.020;6.738;2023-08-30T12:01:28;16.10;99.90
59075;DHT22;44860;53.020;6.738;2023-08-30T12:03:55;16.20;99.90
59075;DHT22;44860;53.020;6.738;2023-08-30T12:06:23;16.10;99.90
59075;DHT22;44860;53.020;6.738;2023-08-30T12:08:48;16.10;99.90
59075;DHT22;44860;53.020;6.738;2023-08-30T12:11:22;16.20;99.90
59075;DHT22;44860;53.020;6.738;2023-08-30T12:13:48;16.10;99.90
59075;DHT22;44860;53.020;6.738;2023-08-30T12:16:17;16.10;99.90
59075;DHT22;44860;53.020;6.738;2023-08-30T12:18:44;16.10;99.90
59075;DHT22;44860;53.020;6.738;2023-08-30T12:21:10;16.10;99.90
59075;DHT22;44860;53.020;6.738;2023-08-30T12:23:35;16.20;99.90
59075;DHT22;44860;53.020;6.738;2023-08-30T12:28:30;16.20;99.90
59075;DHT22;44860;53.020;6.738;2023-08-30T12:30:57;16.20;99.90
59075;DHT22;44860;53.020;6.738;2023-08-30T12:33:23;16.10;99.90
59075;DHT22;44860;53.020;6.738;2023-08-30T12:35:51;16.20;99.90
59075;DHT22;44860;53.020;6.738;2023-08-30T12:38:17;16.10;99.90
59075;DHT22;44860;53.020;6.738;2023-08-30T12:40:48;16.10;99.90
59075;DHT22;44860;53.020;6.738;2023-08-30T12:43:15;16.10;99.90
59075;DHT22;44860;53.020;6.738;2023-08-30T12:45:42;16.10;99.90
59075;DHT22;44860;53.020;6.738;2023-08-30T12:48:09;16.10;99.90
59075;DHT22;44860;53.020;6.738;2023-08-30T12:50:38;16.10;99.90
59075;DHT22;44860;53.020;6.738;2023-08-30T12:53:05;16.20;99.90
59075;DHT22;44860;53.020;6.738;2023-08-30T12:55:32;16.20;99.90
59075;DHT22;44860;53.020;6.738;2023-08-30T12:57:58;16.10;99.90
59075;DHT22;44860;53.020;6.738;2023-08-30T13:00:24;16.20;99.90
59075;DHT22;44860;53.020;6.738;2023-08-30T13:02:50;16.20;99.90
59075;DHT22;44860;53.020;6.738;2023-08-30T13:05:16;16.20;99.90
59075;DHT22;44860;53.020;6.738;2023-08-30T13:07:42;16.20;99.90
59075;DHT22;44860;53.020;6.738;2023-08-30T13:10:08;16.20;99.90
59075;DHT22;44860;53.020;6.738;2023-08-30T13:12:34;16.20;99.90
59075;DHT22;44860;53.020;6.738;2023-08-30T13:15:01;16.20;99.90
59075;DHT22;44860;53.020;6.738;2023-08-30T13:17:27;16.20;99.90
59075;DHT22;44860;53.020;6.738;2023-08-30T13:19:52;16.20;99.90
59075;DHT22;44860;53.020;6.738;2023-08-30T13:22:18;16.20;99.90
59075;DHT22;44860;53.020;6.738;2023-08-30T13:24:44;16.10;99.90
59075;DHT22;44860;53.020;6.738;2023-08-30T13:27:10;16.20;99.90
59075;DHT22;44860;53.020;6.738;2023-08-30T13:29:37;16.20;99.90
59075;DHT22;44860;53.020;6.738;2023-08-30T13:32:02;16.20;99.90
59075;DHT22;44860;53.020;6.738;2023-08-30T13:34:28;16.20;99.90
59075;DHT22;44860;53.020;6.738;2023-08-30T13:36:54;16.20;99.90
59075;DHT22;44860;53.020;6.738;2023-08-30T13:39:20;16.20;99.90
59075;DHT22;44860;53.020;6.738;2023-08-30T13:41:46;16.10;99.90
59075;DHT22;44860;53.020;6.738;2023-08-30T13:44:13;16.20;99.90
59075;DHT22;44860;53.020;6.738;2023-08-30T13:46:38;16.10;99.90
59075;DHT22;44860;53.020;6.738;2023-08-30T13:49:04;16.10;99.90
59075;DHT22;44860;53.020;6.738;2023-08-30T13:51:33;16.10;99.90
59075;DHT22;44860;53.020;6.738;2023-08-30T13:53:59;16.10;99.90
59075;DHT22;44860;53.020;6.738;2023-08-30T13:56:25;16.10;99.90
59075;DHT22;44860;53.020;6.738;2023-08-30T13:58:50;16.10;99.90
59075;DHT22;44860;53.020;6.738;2023-08-30T14:01:16;16.10;99.90
59075;DHT22;44860;53.020;6.738;2023-08-30T14:03:43;16.10;99.90
59075;DHT22;44860;53.020;6.738;2023-08-30T14:06:09;16.20;99.90
59075;DHT22;44860;53.020;6.738;2023-08-30T14:08:35;16.10;99.90
59075;DHT22;44860;53.020;6.738;2023-08-30T14:11:00;16.10;99.90
59075;DHT22;44860;53.020;6.738;2023-08-30T14:13:26;16.00;99.90
59075;DHT22;44860;53.020;6.738;2023-08-30T14:15:54;16.00;99.90
59075;DHT22;44860;53.020;6.738;2023-08-30T14:18:19;15.90;99.90
59075;DHT22;44860;53.020;6.738;2023-08-30T14:20:45;15.70;99.90
59075;DHT22;44860;53.020;6.738;2023-08-30T14:23:11;15.60;99.90
59075;DHT22;44860;53.020;6.738;2023-08-30T14:25:36;15.50;99.90
59075;DHT22;44860;53.020;6.738;2023-08-30T14:28:02;15.40;99.90
59075;DHT22;44860;53.020;6.738;2023-08-30T14:30:30;15.40;99.90
59075;DHT22;44860;53.020;6.738;2023-08-30T14:32:55;15.40;99.90
59075;DHT22;44860;53.020;6.738;2023-08-30T14:35:21;15.40;99.90
59075;DHT22;44860;53.020;6.738;2023-08-30T14:37:50;15.40;99.90
59075;DHT22;44860;53.020;6.738;2023-08-30T14:40:15;15.40;99.90
59075;DHT22;44860;53.020;6.738;2023-08-30T14:42:41;15.40;99.90
59075;DHT22;44860;53.020;6.738;2023-08-30T14:45:07;15.40;99.90
59075;DHT22;44860;53.020;6.738;2023-08-30T14:47:34;15.50;99.90
59075;DHT22;44860;53.020;6.738;2023-08-30T14:50:00;15.50;99.90
59075;DHT22;44860;53.020;6.738;2023-08-30T14:52:28;15.50;99.90
59075;DHT22;44860;53.020;6.738;2023-08-30T14:54:54;15.50;99.90
59075;DHT22;44860;53.020;6.738;2023-08-30T14:57:20;15.50;99.90
59075;DHT22;44860;53.020;6.738;2023-08-30T14:59:46;15.50;99.90
59075;DHT22;44860;53.020;6.738;2023-08-30T15:02:12;15.50;99.90
59075;DHT22;44860;53.020;6.738;2023-08-30T15:04:39;15.50;99.90
59075;DHT22;44860;53.020;6.738;2023-08-30T15:07:04;15.40;99.90
59075;DHT22;44860;53.020;6.738;2023-08-30T15:09:30;15.50;99.90
59075;DHT22;44860;53.020;6.738;2023-08-30T15:11:56;15.40;99.90
59075;DHT22;44860;53.020;6.738;2023-08-30T15:14:24;15.40;99.90
59075;DHT22;44860;53.020;6.738;2023-08-30T15:16:49;15.40;99.90
59075;DHT22;44860;53.020;6.738;2023-08-30T15:19:15;15.40;99.90
59075;DHT22;44860;53.020;6.738;2023-08-30T15:21:41;15.40;99.90
59075;DHT22;44860;53.020;6.738;2023-08-30T15:24:07;15.50;99.90
59075;DHT22;44860;53.020;6.738;2023-08-30T15:26:32;15.50;99.90
59075;DHT22;44860;53.020;6.738;2023-08-30T15:28:58;15.50;99.90
59075;DHT22;44860;53.020;6.738;2023-08-30T15:31:24;15.60;99.90
59075;DHT22;44860;53.020;6.738;2023-08-30T15:33:49;15.70;99.90
59075;DHT22;44860;53.020;6.738;2023-08-30T15:36:15;15.80;99.90
59075;DHT22;44860;53.020;6.738;2023-08-30T15:38:41;16.00;99.90